Time;durP1;ratioP1;P1;durP2;ratioP2;P2;SDS_P1;SDS_P2;PMS_P1;PMS_P2;Temp;Humidity;BMP_temperature;BMP_pressure;BME280_temperature;BME280_humidity;BME280_pressure;Samples;Min_cycle;Max_cycle;Signal;HPM_P1;HPM_P2
2022/12/22 03:26:23;;;;;;;9.30;5.07;;;7.20;99.90;;;;;;6160863;23;20017;-70
2022/12/22 03:28:51;;;;;;;8.52;5.22;;;7.20;99.90;;;;;;6159430;23;20009;-70
2022/12/22 03:31:18;;;;;;;9.95;5.65;;;7.20;99.90;;;;;;6159864;23;20005;-70
2022/12/22 03:33:45;;;;;;;9.18;6.18;;;7.20;99.90;;;;;;6160714;23;20002;-70
2022/12/22 03:36:12;;;;;;;9.00;5.15;;;7.20;99.90;;;;;;6159229;23;19998;-70
2022/12/22 03:38:39;;;;;;;9.82;5.85;;;7.20;99.90;;;;;;6159075;23;20033;-70
2022/12/22 03:41:07;;;;;;;9.57;5.40;;;7.20;99.90;;;;;;6159052;23;20009;-70
2022/12/22 03:46:29;;;;;;;9.68;5.68;;;7.20;99.90;;;;;;6160709;23;20312;-70
2022/12/22 03:49:12;;;;;;;8.30;4.97;;;7.20;99.90;;;;;;6160272;23;20362;-70
2022/12/22 03:51:44;;;;;;;9.32;5.60;;;7.30;99.90;;;;;;6160200;23;20027;-70
2022/12/22 03:54:13;;;;;;;9.00;5.50;;;7.20;99.90;;;;;;6160513;23;20389;-70
2022/12/22 03:56:42;;;;;;;8.38;5.32;;;7.30;99.90;;;;;;6160095;23;20012;-70
2022/12/22 03:59:10;;;;;;;8.05;5.32;;;7.30;99.90;;;;;;6158956;23;20279;-70
2022/12/22 04:01:41;;;;;;;7.20;4.60;;;7.30;99.90;;;;;;6160819;23;20351;-70
2022/12/22 04:04:09;;;;;;;8.57;4.85;;;7.30;99.90;;;;;;6160525;23;20008;-70
2022/12/22 04:06:36;;;;;;;9.25;5.43;;;7.30;99.90;;;;;;6160139;23;20002;-70
2022/12/22 04:09:04;;;;;;;8.23;5.10;;;7.30;99.90;;;;;;6160183;23;20005;-70
2022/12/22 04:14:16;;;;;;;6.85;4.10;;;7.30;99.90;;;;;;6160606;23;20056;-69
2022/12/22 04:16:43;;;;;;;6.45;4.05;;;7.30;99.90;;;;;;6160772;23;20302;-70
2022/12/22 04:19:11;;;;;;;7.05;4.50;;;7.30;99.90;;;;;;6159977;23;20056;-70
2022/12/22 04:21:38;;;;;;;9.23;4.85;;;7.40;99.90;;;;;;6158913;23;20021;-70
2022/12/22 04:24:05;;;;;;;6.75;4.55;;;7.40;99.90;;;;;;6159163;23;20040;-70
2022/12/22 04:26:33;;;;;;;7.53;4.50;;;7.40;99.90;;;;;;6160016;23;20017;-70
2022/12/22 04:29:00;;;;;;;7.45;4.47;;;7.40;99.90;;;;;;6160077;23;20001;-70
2022/12/22 04:31:28;;;;;;;7.05;4.30;;;7.40;99.90;;;;;;6160010;23;20092;-70
2022/12/22 04:33:55;;;;;;;6.57;3.97;;;7.40;99.90;;;;;;6160080;23;20001;-70
2022/12/22 04:36:23;;;;;;;8.15;5.25;;;7.50;99.90;;;;;;6159900;23;20013;-70
2022/12/22 04:38:50;;;;;;;10.45;4.88;;;7.50;99.90;;;;;;6161039;23;20005;-70
2022/12/22 04:41:17;;;;;;;9.82;5.80;;;7.50;99.90;;;;;;6158607;23;20379;-69
2022/12/22 04:43:45;;;;;;;9.45;5.30;;;7.50;99.90;;;;;;6160150;23;19998;-70
2022/12/22 04:46:13;;;;;;;8.98;5.30;;;7.50;99.90;;;;;;6159941;23;20002;-70
2022/12/22 04:48:40;;;;;;;10.75;6.07;;;7.50;99.90;;;;;;6159363;23;20032;-70
2022/12/22 04:51:08;;;;;;;8.43;5.15;;;7.50;99.90;;;;;;6160498;23;20010;-70
2022/12/22 04:53:35;;;;;;;10.32;5.38;;;7.50;99.90;;;;;;6159990;23;20002;-70
2022/12/22 04:56:05;;;;;;;11.43;6.22;;;7.40;99.90;;;;;;6160548;23;20005;-69
2022/12/22 04:58:33;;;;;;;9.48;5.30;;;7.40;99.90;;;;;;6159905;23;20006;-69
2022/12/22 05:01:12;;;;;;;9.35;5.63;;;7.40;99.90;;;;;;6159848;23;20001;-70
2022/12/22 05:03:40;;;;;;;11.15;6.40;;;7.30;99.90;;;;;;6160037;23;20002;-70
2022/12/22 05:06:08;;;;;;;9.20;5.32;;;7.30;99.90;;;;;;6158510;23;20401;-70
2022/12/22 05:08:35;;;;;;;10.23;6.47;;;7.30;99.90;;;;;;6160565;23;20005;-69
2022/12/22 05:11:02;;;;;;;13.45;6.55;;;7.30;99.90;;;;;;6161625;23;20090;-70
2022/12/22 05:13:31;;;;;;;13.70;6.63;;;7.30;99.90;;;;;;6162006;23;19998;-70
2022/12/22 05:16:07;;;;;;;13.00;6.47;;;7.20;99.90;;;;;;6161748;23;19997;-70
2022/12/22 05:18:35;;;;;;;10.30;6.38;;;7.20;99.90;;;;;;6161664;23;20120;-70
2022/12/22 05:21:28;;;;;;;46.55;22.17;;;7.20;99.90;;;;;;6161953;23;20017;-70
2022/12/22 05:23:56;;;;;;;16.65;9.07;;;7.10;99.90;;;;;;6157032;23;20080;-70
2022/12/22 05:26:23;;;;;;;15.75;9.48;;;7.10;99.90;;;;;;6135798;23;20013;-70
2022/12/22 05:28:51;;;;;;;13.95;8.05;;;7.10;99.90;;;;;;6162345;23;20150;-70
2022/12/22 05:31:24;;;;;;;14.80;7.95;;;7.10;99.90;;;;;;6161040;23;20064;-70
2022/12/22 05:33:51;;;;;;;24.10;11.18;;;7.10;99.90;;;;;;6160364;23;20248;-70
2022/12/22 05:36:19;;;;;;;19.27;10.10;;;7.10;99.90;;;;;;6162191;23;20005;-70
2022/12/22 05:38:46;;;;;;;40.13;18.17;;;7.10;99.90;;;;;;6161976;23;20029;-70
2022/12/22 05:41:14;;;;;;;31.63;13.85;;;7.10;99.90;;;;;;6162888;23;20088;-70
2022/12/22 05:43:41;;;;;;;22.92;10.95;;;7.10;99.90;;;;;;6162539;23;20001;-70
2022/12/22 05:46:10;;;;;;;24.27;12.48;;;7.10;99.90;;;;;;6162121;23;20005;-70
2022/12/22 05:48:38;;;;;;;24.30;11.00;;;7.10;99.90;;;;;;6161294;23;20008;-70
2022/12/22 05:51:07;;;;;;;20.73;10.80;;;7.10;99.90;;;;;;6159953;23;20037;-70
2022/12/22 05:53:35;;;;;;;12.63;7.47;;;7.10;99.90;;;;;;6162537;23;20247;-70
2022/12/22 05:56:04;;;;;;;14.38;7.82;;;7.10;99.90;;;;;;6162022;23;20002;-70
2022/12/22 05:58:31;;;;;;;16.33;7.90;;;7.10;99.90;;;;;;6160035;23;20009;-70
2022/12/22 06:01:00;;;;;;;16.70;6.40;;;7.10;99.90;;;;;;6162032;23;20363;-70
2022/12/22 06:03:28;;;;;;;11.73;6.13;;;7.10;99.90;;;;;;6161402;23;20001;-70
2022/12/22 06:05:55;;;;;;;21.20;10.38;;;7.10;99.90;;;;;;6161152;23;20009;-70
2022/12/22 06:08:23;;;;;;;22.88;11.07;;;7.10;99.90;;;;;;6159906;23;20010;-69
2022/12/22 06:10:50;;;;;;;19.80;10.25;;;7.10;99.90;;;;;;6161135;23;20005;-70
2022/12/22 06:13:17;;;;;;;17.98;10.15;;;7.10;99.90;;;;;;6161386;23;19998;-70
2022/12/22 06:15:45;;;;;;;15.00;8.32;;;7.10;99.90;;;;;;6161203;23;19998;-70
2022/12/22 06:18:12;;;;;;;15.00;7.40;;;7.10;99.90;;;;;;6161083;23;20002;-70
2022/12/22 06:20:39;;;;;;;22.40;10.82;;;7.10;99.90;;;;;;6160166;23;20009;-70
2022/12/22 06:23:06;;;;;;;15.38;7.75;;;7.10;99.90;;;;;;6159906;23;20378;-70
2022/12/22 06:25:34;;;;;;;10.82;6.00;;;7.10;99.90;;;;;;6161412;23;20012;-69
2022/12/22 06:28:01;;;;;;;13.75;6.55;;;7.10;99.90;;;;;;6161428;23;20342;-70
2022/12/22 06:30:29;;;;;;;11.57;5.78;;;7.10;99.90;;;;;;6160969;23;20080;-69
2022/12/22 06:32:56;;;;;;;11.68;6.30;;;7.10;99.90;;;;;;6135220;23;20045;-70
2022/12/22 06:35:24;;;;;;;11.98;6.45;;;7.10;99.90;;;;;;6159744;23;20012;-69
2022/12/22 06:37:51;;;;;;;15.20;6.60;;;7.20;99.90;;;;;;6161048;23;20077;-69
2022/12/22 06:40:18;;;;;;;14.18;7.00;;;7.30;99.90;;;;;;6159616;23;20013;-70
2022/12/22 06:45:32;;;;;;;12.20;6.18;;;7.30;99.90;;;;;;6160920;23;20410;-70
2022/12/22 06:47:59;;;;;;;12.93;6.63;;;7.40;99.90;;;;;;6161426;23;20077;-70
2022/12/22 06:50:27;;;;;;;40.25;17.65;;;7.30;99.90;;;;;;6161042;23;20008;-70
2022/12/22 06:52:55;;;;;;;13.70;7.32;;;7.40;99.90;;;;;;6160759;23;19997;-70
2022/12/22 06:55:22;;;;;;;13.93;6.97;;;7.40;99.90;;;;;;6161513;23;20005;-70
2022/12/22 06:57:49;;;;;;;12.38;6.38;;;7.40;99.90;;;;;;6160318;23;20013;-70
2022/12/22 07:00:16;;;;;;;13.25;6.80;;;7.40;99.90;;;;;;6161404;23;19998;-70
2022/12/22 07:02:44;;;;;;;15.68;6.80;;;7.40;99.90;;;;;;6160848;23;20001;-70
2022/12/22 07:05:11;;;;;;;11.52;5.53;;;7.50;99.90;;;;;;6160654;23;20006;-70
2022/12/22 07:07:38;;;;;;;12.55;6.28;;;7.50;99.90;;;;;;6161263;23;20410;-70
2022/12/22 07:10:06;;;;;;;11.95;6.20;;;7.50;99.90;;;;;;6160683;23;20022;-70
2022/12/22 07:12:34;;;;;;;14.10;6.78;;;7.50;99.90;;;;;;6160599;23;20060;-70
2022/12/22 07:15:01;;;;;;;13.55;7.93;;;7.50;99.90;;;;;;6160981;23;20005;-70
2022/12/22 07:17:29;;;;;;;12.23;6.60;;;7.50;99.90;;;;;;6160724;23;19998;-70
2022/12/22 07:19:56;;;;;;;12.85;6.18;;;7.50;99.90;;;;;;6160374;23;20384;-70
2022/12/22 07:22:23;;;;;;;12.57;6.70;;;7.60;99.90;;;;;;6158886;23;20025;-70
2022/12/22 07:24:51;;;;;;;10.05;6.18;;;7.60;99.90;;;;;;6160539;23;20001;-70
2022/12/22 07:27:18;;;;;;;11.68;5.72;;;7.60;99.90;;;;;;6159366;23;20084;-70
2022/12/22 07:29:45;;;;;;;11.98;5.93;;;7.60;99.90;;;;;;6160479;23;20005;-70
2022/12/22 07:32:14;;;;;;;12.30;6.70;;;7.60;99.90;;;;;;6160204;23;20005;-70
2022/12/22 07:34:41;;;;;;;12.82;6.45;;;7.60;99.90;;;;;;6160424;23;20367;-70
2022/12/22 07:37:08;;;;;;;11.93;6.07;;;7.60;99.90;;;;;;6159289;23;20002;-70
2022/12/22 07:39:36;;;;;;;11.77;6.68;;;7.60;99.90;;;;;;6159061;23;20001;-70
2022/12/22 07:44:49;;;;;;;12.23;6.20;;;7.60;99.90;;;;;;6160396;23;20012;-70
2022/12/22 07:47:16;;;;;;;14.50;6.57;;;7.60;99.90;;;;;;6159194;23;20088;-70
2022/12/22 07:52:29;;;;;;;10.05;5.43;;;7.60;99.90;;;;;;6160259;23;20310;-70
2022/12/22 07:54:57;;;;;;;12.25;5.38;;;7.60;99.90;;;;;;6160571;23;20083;-70
2022/12/22 07:57:25;;;;;;;10.23;5.03;;;7.60;99.90;;;;;;6160444;23;20004;-70
2022/12/22 07:59:53;;;;;;;11.48;4.93;;;7.70;99.90;;;;;;6160114;23;20001;-70
2022/12/22 08:02:20;;;;;;;9.75;5.22;;;7.60;99.90;;;;;;6160057;23;20263;-70
2022/12/22 08:04:48;;;;;;;9.93;5.30;;;7.70;99.90;;;;;;6160654;23;20001;-70
2022/12/22 08:07:15;;;;;;;9.90;5.32;;;7.70;99.90;;;;;;6160082;23;20076;-70
2022/12/22 08:09:42;;;;;;;11.70;5.53;;;7.70;99.90;;;;;;6160161;23;20002;-70
2022/12/22 08:12:09;;;;;;;11.65;5.00;;;7.60;99.90;;;;;;6158642;23;20331;-70
2022/12/22 08:14:37;;;;;;;10.07;5.60;;;7.60;99.90;;;;;;6160102;23;20048;-70
2022/12/22 08:17:05;;;;;;;13.20;5.85;;;7.60;99.90;;;;;;6160086;23;19997;-70
2022/12/22 08:19:33;;;;;;;10.68;5.50;;;7.60;99.90;;;;;;6160070;23;20136;-70
2022/12/22 08:22:01;;;;;;;11.32;5.72;;;7.60;99.90;;;;;;6160083;23;20049;-70
2022/12/22 08:24:29;;;;;;;14.32;5.45;;;7.60;99.90;;;;;;6159934;23;20010;-72
2022/12/22 08:27:11;;;;;;;10.73;6.10;;;7.60;99.90;;;;;;6158664;23;20009;-72
2022/12/22 08:29:44;;;;;;;10.32;5.40;;;7.60;99.90;;;;;;6160653;23;20009;-70
2022/12/22 08:32:13;;;;;;;10.15;5.53;;;7.60;99.90;;;;;;6160112;23;20006;-70
2022/12/22 08:34:41;;;;;;;19.60;6.40;;;7.60;99.90;;;;;;6160629;23;19998;-70
2022/12/22 08:37:15;;;;;;;31.05;5.68;;;7.60;99.90;;;;;;6160052;23;19997;-70
2022/12/22 08:39:45;;;;;;;17.17;4.97;;;7.60;99.90;;;;;;6159950;23;20044;-70
2022/12/22 08:42:13;;;;;;;12.38;4.82;;;7.50;99.90;;;;;;6161147;23;20251;-70
2022/12/22 08:44:41;;;;;;;117.75;8.00;;;7.50;99.90;;;;;;6161572;23;20009;-70
2022/12/22 08:47:09;;;;;;;17.65;4.72;;;7.50;99.90;;;;;;6162043;23;20040;-70
2022/12/22 08:49:39;;;;;;;10.50;4.43;;;7.50;99.90;;;;;;6161850;23;20028;-70
2022/12/22 08:52:07;;;;;;;14.90;4.72;;;7.50;99.90;;;;;;6161926;23;20012;-70
2022/12/22 08:54:34;;;;;;;45.22;5.10;;;7.50;99.90;;;;;;6161918;23;20001;-72
2022/12/22 08:57:06;;;;;;;13.20;3.72;;;7.50;99.90;;;;;;6161873;23;20005;-70
2022/12/22 08:59:34;;;;;;;6.90;4.05;;;7.50;99.90;;;;;;6161883;23;20008;-70
2022/12/22 09:02:04;;;;;;;5.35;3.47;;;7.50;99.90;;;;;;6161903;23;20370;-70
2022/12/22 09:04:33;;;;;;;6.70;3.95;;;7.50;99.90;;;;;;6161682;23;20374;-70
2022/12/22 09:07:02;;;;;;;9.10;3.35;;;7.50;99.90;;;;;;6160539;23;20041;-70
2022/12/22 09:09:34;;;;;;;5.55;3.53;;;7.50;99.90;;;;;;6162123;23;20002;-70
2022/12/22 09:12:02;;;;;;;18.67;3.55;;;7.50;99.90;;;;;;6161713;23;20056;-71
2022/12/22 09:14:31;;;;;;;5.47;3.03;;;7.50;99.90;;;;;;6160593;23;20021;-72
2022/12/22 09:16:59;;;;;;;9.73;3.60;;;7.50;99.90;;;;;;6161684;23;20064;-72
2022/12/22 09:19:26;;;;;;;5.95;3.22;;;7.50;99.90;;;;;;6161659;23;20003;-71
2022/12/22 09:21:54;;;;;;;6.50;2.97;;;7.50;99.90;;;;;;6161496;23;20040;-72
2022/12/22 09:24:22;;;;;;;5.75;3.03;;;7.50;99.90;;;;;;6160212;23;20097;-72
2022/12/22 09:26:49;;;;;;;4.05;2.60;;;7.60;99.90;;;;;;6161586;23;20080;-70
2022/12/22 09:29:16;;;;;;;6.03;2.53;;;7.60;99.90;;;;;;6162292;23;20001;-70
2022/12/22 09:31:43;;;;;;;6.30;4.38;;;7.60;99.90;;;;;;6162133;23;20024;-70
2022/12/22 09:34:11;;;;;;;5.82;3.33;;;7.60;99.90;;;;;;6161642;23;20124;-70
2022/12/22 09:36:40;;;;;;;10.35;6.47;;;7.70;99.90;;;;;;6161587;23;20002;-70
2022/12/22 09:39:09;;;;;;;8.77;4.38;;;7.70;99.90;;;;;;6160489;23;20006;-70
2022/12/22 09:41:50;;;;;;;8.70;5.00;;;7.70;99.90;;;;;;6160134;23;20010;-70
2022/12/22 09:44:38;;;;;;;24.23;14.35;;;7.70;99.90;;;;;;6161510;23;20006;-70
2022/12/22 09:47:32;;;;;;;16.20;10.15;;;7.70;99.90;;;;;;6161635;23;20428;-70
2022/12/22 09:49:59;;;;;;;19.42;9.80;;;7.80;99.90;;;;;;6161343;23;20001;-70
2022/12/22 09:52:35;;;;;;;11.52;7.45;;;7.80;99.90;;;;;;6162031;23;20076;-70
2022/12/22 09:55:05;;;;;;;10.80;6.82;;;7.80;99.90;;;;;;6161896;23;20009;-70
2022/12/22 09:57:33;;;;;;;9.60;5.68;;;7.80;99.90;;;;;;6161534;23;20012;-70
2022/12/22 10:00:23;;;;;;;9.52;5.20;;;7.90;99.90;;;;;;6161364;23;20068;-70
2022/12/22 10:03:00;;;;;;;17.60;5.38;;;7.90;99.90;;;;;;6161891;23;20002;-70
2022/12/22 10:05:58;;;;;;;6.80;3.92;;;7.90;99.90;;;;;;6161178;23;20044;-70
2022/12/22 10:08:33;;;;;;;13.85;8.23;;;7.90;99.90;;;;;;6152412;23;20001;-70
2022/12/22 10:11:01;;;;;;;10.88;5.03;;;8.00;99.90;;;;;;6161808;23;20008;-70
2022/12/22 10:13:29;;;;;;;11.43;5.47;;;8.10;99.90;;;;;;6161266;23;20025;-70
2022/12/22 10:15:57;;;;;;;6.90;4.10;;;8.20;99.90;;;;;;6161187;23;20004;-70
2022/12/22 10:18:29;;;;;;;6.78;3.95;;;8.20;99.90;;;;;;6159867;23;20286;-72
2022/12/22 10:21:07;;;;;;;5.97;3.28;;;8.30;99.90;;;;;;6161209;23;20014;-72
2022/12/22 10:23:39;;;;;;;5.57;3.47;;;8.40;99.90;;;;;;6161135;23;20002;-72
2022/12/22 10:26:28;;;;;;;4.65;2.95;;;8.50;99.90;;;;;;6161765;23;20056;-70
2022/12/22 10:29:10;;;;;;;7.22;3.10;;;8.50;99.90;;;;;;6161241;23;20012;-70
2022/12/22 10:31:58;;;;;;;7.25;3.60;;;8.60;99.90;;;;;;6161602;23;20012;-70
2022/12/22 10:34:26;;;;;;;5.63;3.10;;;8.70;99.90;;;;;;6161127;23;20270;-70
2022/12/22 10:37:02;;;;;;;6.80;3.33;;;8.70;99.90;;;;;;6161648;23;20005;-70
2022/12/22 10:39:37;;;;;;;8.15;3.80;;;8.80;99.90;;;;;;6160981;23;20397;-70
2022/12/22 10:42:15;;;;;;;6.50;3.70;;;8.80;99.90;;;;;;6160851;23;20009;-70
2022/12/22 10:44:48;;;;;;;8.13;3.92;;;8.90;99.90;;;;;;6159778;23;20274;-70
2022/12/22 10:47:22;;;;;;;6.45;4.13;;;8.90;99.90;;;;;;6161245;23;20006;-70
2022/12/22 10:49:55;;;;;;;7.25;4.30;;;9.00;99.90;;;;;;6160807;23;20010;-70
2022/12/22 10:52:29;;;;;;;8.20;4.70;;;9.00;99.90;;;;;;6161709;23;20039;-70
2022/12/22 10:55:20;;;;;;;7.65;4.55;;;9.00;99.90;;;;;;6160807;23;20274;-70
2022/12/22 10:57:48;;;;;;;7.47;4.32;;;9.10;99.90;;;;;;6161176;23;20358;-70
2022/12/22 11:00:30;;;;;;;6.85;3.90;;;9.10;99.90;;;;;;6159416;23;20440;-70
2022/12/22 11:02:59;;;;;;;6.45;3.83;;;9.20;99.90;;;;;;6161556;23;19998;-70
2022/12/22 11:05:28;;;;;;;8.25;4.15;;;9.20;99.90;;;;;;6159508;23;20009;-70
2022/12/22 11:07:56;;;;;;;6.50;4.25;;;9.20;99.90;;;;;;6159276;23;20029;-70
2022/12/22 11:10:34;;;;;;;7.30;4.03;;;9.20;99.90;;;;;;6159325;23;20271;-70
2022/12/22 11:13:04;;;;;;;6.70;3.92;;;9.30;99.90;;;;;;6161545;23;20012;-70
2022/12/22 11:16:02;;;;;;;5.97;3.28;;;9.30;99.90;;;;;;6161306;23;20076;-70
2022/12/22 11:18:58;;;;;;;7.57;3.83;;;9.40;99.90;;;;;;6160453;23;20008;-70
2022/12/22 11:21:51;;;;;;;10.73;4.20;;;9.40;99.90;;;;;;6160155;23;20013;-70
2022/12/22 11:24:50;;;;;;;5.43;3.33;;;9.40;99.90;;;;;;6159413;23;20010;-69
2022/12/22 11:27:40;;;;;;;8.25;4.43;;;9.40;99.90;;;;;;6167163;23;20010;-71
2022/12/22 11:30:24;;;;;;;9.98;5.10;;;9.40;99.90;;;;;;6161115;23;19997;-71
2022/12/22 11:33:22;;;;;;;10.50;6.00;;;9.30;99.90;;;;;;6160431;23;20064;-71
2022/12/22 11:36:05;;;;;;;9.70;5.27;;;9.20;99.90;;;;;;6160759;23;20012;-72
2022/12/22 11:38:48;;;;;;;11.68;5.78;;;9.20;99.90;;;;;;6159103;23;20012;-71
2022/12/22 11:41:44;;;;;;;10.27;4.90;;;9.10;99.90;;;;;;6160972;23;20002;-72
2022/12/22 11:44:38;;;;;;;8.45;4.63;;;9.10;99.90;;;;;;6159127;23;20014;-71
2022/12/22 11:47:23;;;;;;;10.45;5.55;;;9.00;99.90;;;;;;6160289;23;19997;-71
2022/12/22 11:50:13;;;;;;;8.65;4.35;;;8.90;99.90;;;;;;6158647;23;20025;-71
2022/12/22 11:52:59;;;;;;;9.10;5.10;;;8.90;99.90;;;;;;6160859;23;20080;-71
2022/12/22 11:55:40;;;;;;;12.50;5.93;;;8.80;99.90;;;;;;6160970;23;20001;-72
2022/12/22 11:58:41;;;;;;;11.70;5.82;;;8.80;99.90;;;;;;6183695;23;20012;-72
2022/12/22 12:01:45;;;;;;;12.23;5.75;;;8.70;99.90;;;;;;6160623;23;20005;-71
2022/12/22 12:04:21;;;;;;;10.73;5.90;;;8.60;99.90;;;;;;6160502;23;20010;-71
2022/12/22 12:07:24;;;;;;;9.30;4.18;;;8.60;99.90;;;;;;6160823;23;20381;-72
2022/12/22 12:10:14;;;;;;;6.95;3.90;;;8.60;99.90;;;;;;6160802;23;20009;-72
2022/12/22 12:13:03;;;;;;;7.95;4.10;;;8.50;99.90;;;;;;6160731;23;20017;-72
2022/12/22 12:15:36;;;;;;;8.23;4.20;;;8.60;99.90;;;;;;6159954;23;20008;-72
2022/12/22 12:18:22;;;;;;;8.32;4.50;;;8.60;99.90;;;;;;6159983;23;20002;-72
2022/12/22 12:20:58;;;;;;;8.73;3.92;;;8.60;99.90;;;;;;6160142;23;20302;-72
2022/12/22 12:23:47;;;;;;;10.48;4.88;;;8.60;99.90;;;;;;6160110;23;20013;-72
2022/12/22 12:26:41;;;;;;;10.25;4.97;;;8.60;99.90;;;;;;6160310;23;20016;-72
2022/12/22 12:29:25;;;;;;;10.20;6.18;;;8.70;99.90;;;;;;6160524;23;20029;-72
2022/12/22 12:32:11;;;;;;;9.52;4.70;;;8.70;99.90;;;;;;6158584;23;20009;-72
2022/12/22 12:34:45;;;;;;;8.63;5.03;;;8.70;99.90;;;;;;6159900;23;20002;-72
2022/12/22 12:37:30;;;;;;;12.18;6.07;;;8.70;99.90;;;;;;6160851;23;20378;-72
2022/12/22 12:40:09;;;;;;;11.32;6.43;;;8.70;99.90;;;;;;6159812;23;20012;-72
2022/12/22 12:42:39;;;;;;;10.70;5.57;;;8.70;99.90;;;;;;6160624;23;20006;-72
2022/12/22 12:45:32;;;;;;;9.98;6.38;;;8.70;99.90;;;;;;6159904;23;20013;-72
2022/12/22 12:48:21;;;;;;;10.52;6.28;;;8.80;99.90;;;;;;6160413;23;20056;-72
2022/12/22 12:50:53;;;;;;;11.15;6.30;;;8.80;99.90;;;;;;6158517;23;20093;-72
2022/12/22 12:53:28;;;;;;;16.00;8.15;;;8.80;99.90;;;;;;6160617;23;20001;-72
2022/12/22 12:56:00;;;;;;;14.05;7.28;;;8.90;99.90;;;;;;6159852;23;20072;-72
2022/12/22 12:58:37;;;;;;;14.32;8.00;;;8.90;99.90;;;;;;6160711;23;20002;-72
2022/12/22 13:01:10;;;;;;;11.50;7.20;;;8.90;99.90;;;;;;6160160;23;20009;-72
2022/12/22 13:03:42;;;;;;;11.55;7.32;;;8.90;99.90;;;;;;6158499;23;20017;-72
2022/12/22 13:06:32;;;;;;;13.50;7.43;;;9.00;99.90;;;;;;6159862;23;20023;-72
2022/12/22 13:09:02;;;;;;;12.40;6.90;;;9.10;99.90;;;;;;6159692;23;20006;-72
2022/12/22 13:11:36;;;;;;;12.15;6.65;;;9.10;99.90;;;;;;6159719;23;20275;-72
2022/12/22 13:14:04;;;;;;;13.02;7.65;;;9.10;99.90;;;;;;6158518;23;20033;-72
2022/12/22 13:16:38;;;;;;;12.40;6.43;;;9.10;99.90;;;;;;6159844;23;20001;-72
2022/12/22 13:19:18;;;;;;;13.27;6.68;;;9.20;99.90;;;;;;6158359;23;20009;-72
2022/12/22 13:21:45;;;;;;;13.25;7.18;;;9.20;99.90;;;;;;6159616;23;20044;-71
2022/12/22 13:24:22;;;;;;;14.70;7.32;;;9.20;99.90;;;;;;6160335;23;20009;-72
2022/12/22 13:26:53;;;;;;;14.88;8.02;;;9.20;99.90;;;;;;6160096;23;20363;-72
2022/12/22 13:29:45;;;;;;;11.27;6.70;;;9.20;99.90;;;;;;6160290;23;20016;-72
2022/12/22 13:32:42;;;;;;;11.95;7.22;;;9.20;99.90;;;;;;6161736;23;20012;-72
2022/12/22 13:35:16;;;;;;;;;;;9.00;99.90;;;;;;6138645;23;20002;-72
2022/12/22 13:37:48;;;;;;;14.52;6.85;;;9.00;99.90;;;;;;6161960;23;19909;-72
2022/12/22 13:40:29;;;;;;;11.35;5.97;;;9.10;99.90;;;;;;6160150;23;20366;-72
2022/12/22 13:43:27;;;;;;;11.10;6.13;;;9.00;99.90;;;;;;6161754;23;19998;-72
2022/12/22 13:45:57;;;;;;;;;;;9.00;99.90;;;;;;6137891;23;20005;-72
2022/12/22 13:48:34;;;;;;;12.63;6.45;;;9.00;99.90;;;;;;6161643;23;20221;-72
2022/12/22 13:51:04;;;;;;;14.55;7.00;;;9.00;99.90;;;;;;6162011;23;20009;-71
2022/12/22 13:53:43;;;;;;;12.40;6.85;;;9.10;99.90;;;;;;6161614;23;20004;-71
2022/12/22 13:56:25;;;;;;;12.80;6.78;;;9.00;99.90;;;;;;6162059;23;20001;-71
2022/12/22 13:59:01;;;;;;;14.02;7.38;;;9.00;99.90;;;;;;6161314;23;20024;-72
2022/12/22 14:01:28;;;;;;;15.90;7.10;;;9.00;99.90;;;;;;6161279;23;20048;-71
2022/12/22 14:04:06;;;;;;;13.65;7.03;;;9.10;99.90;;;;;;6161429;23;20027;-72
2022/12/22 14:06:38;;;;;;;16.60;6.97;;;9.10;99.90;;;;;;6161109;23;20334;-71
2022/12/22 14:09:27;;;;;;;14.07;7.10;;;9.10;99.90;;;;;;6161273;23;20006;-71
2022/12/22 14:12:12;;;;;;;15.18;6.93;;;9.10;99.90;;;;;;6161450;23;20367;-71
2022/12/22 14:14:44;;;;;;;15.85;7.03;;;8.90;99.90;;;;;;6161242;23;20032;-71
2022/12/22 14:17:31;;;;;;;13.20;7.95;;;8.90;99.90;;;;;;6159896;23;20063;-71
2022/12/22 14:20:01;;;;;;;14.35;7.22;;;8.70;99.90;;;;;;6161367;23;20072;-71
2022/12/22 14:22:37;;;;;;;15.77;7.55;;;8.60;99.90;;;;;;6159564;23;20088;-71
2022/12/22 14:25:17;;;;;;;16.48;7.43;;;8.40;99.90;;;;;;6161079;23;20397;-71
2022/12/22 14:27:54;;;;;;;12.57;6.90;;;8.30;99.90;;;;;;6161731;23;20008;-71
2022/12/22 14:30:29;;;;;;;16.65;7.35;;;8.10;99.90;;;;;;6161023;23;20006;-71
2022/12/22 14:33:14;;;;;;;13.27;7.10;;;7.90;99.90;;;;;;6159729;23;20389;-71
2022/12/22 14:35:42;;;;;;;15.52;8.07;;;7.80;99.90;;;;;;6161114;23;20233;-71
2022/12/22 14:38:26;;;;;;;17.50;7.35;;;7.70;99.90;;;;;;6161104;23;20005;-71
2022/12/22 14:40:54;;;;;;;17.05;7.10;;;7.50;99.90;;;;;;6160726;23;20306;-71
2022/12/22 14:43:27;;;;;;;18.20;8.68;;;7.40;99.90;;;;;;6161334;23;20005;-71
2022/12/22 14:46:06;;;;;;;17.20;7.22;;;7.30;99.90;;;;;;6160910;23;20004;-71
2022/12/22 14:48:45;;;;;;;19.13;8.85;;;7.20;99.90;;;;;;6159655;23;20012;-71
2022/12/22 14:51:18;;;;;;;18.45;8.38;;;7.20;99.90;;;;;;6160786;23;20002;-71
2022/12/22 14:53:53;;;;;;;16.27;7.82;;;7.10;99.90;;;;;;6161162;23;20001;-71
2022/12/22 14:56:21;;;;;;;19.80;8.35;;;7.10;99.90;;;;;;6161940;23;20260;-71
2022/12/22 14:58:49;;;;;;;15.45;8.63;;;7.10;99.90;;;;;;6159667;23;20374;-71
2022/12/22 15:01:25;;;;;;;21.95;9.02;;;7.00;99.90;;;;;;6160742;23;20009;-71
2022/12/22 15:04:23;;;;;;;16.30;8.45;;;6.90;99.90;;;;;;6161026;23;20009;-71
2022/12/22 15:06:51;;;;;;;20.50;9.63;;;6.80;99.90;;;;;;6159413;23;20318;-71
2022/12/22 15:09:19;;;;;;;16.88;8.52;;;6.60;99.90;;;;;;6134977;23;20061;-71
2022/12/22 15:11:50;;;;;;;25.23;10.27;;;6.60;99.90;;;;;;6161248;23;20027;-71
2022/12/22 15:14:29;;;;;;;16.95;8.68;;;6.50;99.90;;;;;;6160578;23;20006;-71
2022/12/22 15:17:02;;;;;;;26.58;10.02;;;6.40;99.90;;;;;;6160523;23;20067;-71
2022/12/22 15:19:34;;;;;;;22.70;9.23;;;6.30;99.90;;;;;;6160550;23;20002;-71
2022/12/22 15:22:06;;;;;;;26.55;10.55;;;6.20;99.90;;;;;;6160326;23;20022;-71
2022/12/22 15:24:34;;;;;;;30.92;11.88;;;6.10;99.90;;;;;;6161206;23;20005;-71
2022/12/22 15:27:01;;;;;;;20.55;10.00;;;6.00;99.90;;;;;;6160417;23;20005;-71
2022/12/22 15:29:29;;;;;;;23.92;10.10;;;5.90;99.90;;;;;;6160964;23;20088;-71
2022/12/22 15:31:57;;;;;;;25.88;10.38;;;5.80;99.90;;;;;;6160278;23;20040;-71
2022/12/22 15:34:30;;;;;;;24.30;10.77;;;5.70;99.90;;;;;;6159066;23;20028;-71
2022/12/22 15:36:57;;;;;;;25.42;10.38;;;5.60;99.90;;;;;;6160418;23;20056;-71
2022/12/22 15:39:24;;;;;;;26.58;10.63;;;5.50;99.90;;;;;;6160298;23;20075;-71
2022/12/22 15:41:53;;;;;;;25.35;11.02;;;5.40;99.90;;;;;;6161065;23;20373;-71
2022/12/22 15:44:21;;;;;;;24.20;10.45;;;5.30;99.90;;;;;;6160926;23;20005;-71
2022/12/22 15:46:55;;;;;;;33.80;14.55;;;5.20;99.90;;;;;;6160260;23;20077;-71
2022/12/22 15:49:27;;;;;;;64.97;16.38;;;5.20;99.90;;;;;;6160265;23;20017;-71
2022/12/22 15:51:58;;;;;;;68.10;14.57;;;5.10;99.90;;;;;;6159947;23;20013;-71
2022/12/22 15:54:27;;;;;;;100.50;21.83;;;5.00;99.90;;;;;;6159118;23;20008;-71
2022/12/22 15:56:55;;;;;;;140.95;27.20;;;5.00;99.90;;;;;;6160506;23;20002;-71
2022/12/22 15:59:27;;;;;;;135.32;24.33;;;4.90;99.90;;;;;;6158872;23;20008;-71
2022/12/22 16:01:56;;;;;;;152.43;23.73;;;4.80;99.90;;;;;;6160081;23;20370;-71
2022/12/22 16:04:24;;;;;;;314.17;48.13;;;4.80;99.90;;;;;;6159986;23;20010;-71
2022/12/22 16:06:52;;;;;;;240.45;38.67;;;4.70;99.90;;;;;;6158847;23;20010;-71
2022/12/22 16:09:31;;;;;;;118.22;28.02;;;4.70;99.90;;;;;;6160177;23;20037;-71
2022/12/22 16:11:58;;;;;;;113.95;26.85;;;4.60;99.90;;;;;;6159919;23;20023;-71
2022/12/22 16:14:26;;;;;;;84.72;23.67;;;4.60;99.90;;;;;;6160054;23;20001;-71
2022/12/22 16:16:55;;;;;;;83.65;23.15;;;4.50;99.90;;;;;;6160041;23;20001;-71
2022/12/22 16:19:22;;;;;;;62.30;21.13;;;4.50;99.90;;;;;;6160213;23;20471;-71
2022/12/22 16:21:53;;;;;;;54.97;18.50;;;4.50;99.90;;;;;;6159868;23;20043;-71
2022/12/22 16:24:33;;;;;;;61.00;18.38;;;4.40;99.90;;;;;;6158755;23;20096;-71
2022/12/22 16:27:02;;;;;;;74.00;19.27;;;4.40;99.90;;;;;;6160432;23;20266;-71
2022/12/22 16:29:30;;;;;;;70.03;19.70;;;4.30;99.90;;;;;;6160123;23;20084;-71
2022/12/22 16:32:15;;;;;;;63.08;18.23;;;4.20;99.90;;;;;;6159794;23;20010;-71
2022/12/22 16:34:43;;;;;;;85.25;19.98;;;4.20;99.90;;;;;;6160060;23;20002;-71
2022/12/22 16:37:10;;;;;;;51.83;17.88;;;4.20;99.90;;;;;;6158817;23;20001;-71
2022/12/22 16:39:38;;;;;;;52.97;19.58;;;4.20;99.90;;;;;;6158823;23;20009;-71
2022/12/22 16:42:12;;;;;;;56.58;21.02;;;4.20;99.90;;;;;;6159935;23;20002;-71
2022/12/22 16:44:41;;;;;;;52.47;19.85;;;4.20;99.90;;;;;;6159977;23;20005;-71
2022/12/22 16:47:36;;;;;;;65.10;27.70;;;4.20;99.90;;;;;;6159930;23;20001;-71
2022/12/22 16:50:16;;;;;;;82.35;30.75;;;4.10;99.90;;;;;;6158563;23;20009;-71
2022/12/22 16:52:44;;;;;;;77.07;28.73;;;4.10;99.90;;;;;;6159817;23;20081;-71
2022/12/22 16:55:16;;;;;;;66.45;25.90;;;4.00;99.90;;;;;;6160264;23;20076;-71
2022/12/22 16:57:44;;;;;;;73.38;24.60;;;4.00;99.90;;;;;;6160084;23;20005;-71